Time;durP1;ratioP1;P1;durP2;ratioP2;P2;SDS_P1;SDS_P2;PMS_P1;PMS_P2;Temp;Humidity;BMP_temperature;BMP_pressure;BME280_temperature;BME280_humidity;BME280_pressure;Samples;Min_cycle;Max_cycle;Signal;HPM_P1;HPM_P2
2023/07/10 00:01:32;;;;;;;;;;;;;;;28.66;42.12;101045.34;103093;1284;60877;-82
2023/07/10 00:03:57;;;;;;;;;;;;;;;28.66;41.89;101045.38;102975;1288;68992;-82
2023/07/10 00:06:23;;;;;;;;;;;;;;;28.65;42.06;101045.23;103099;1285;60872;-82
2023/07/10 00:08:49;;;;;;;;;;;;;;;28.65;41.86;101044.52;103072;1284;63071;-82
2023/07/10 00:11:14;;;;;;;;;;;;;;;28.66;42.02;101039.80;103292;1288;60813;-82
2023/07/10 00:13:39;;;;;;;;;;;;;;;28.65;42.00;101040.55;103087;1284;62172;-82
2023/07/10 00:16:05;;;;;;;;;;;;;;;28.65;41.88;101043.84;102997;1284;66385;-82
2023/07/10 00:18:30;;;;;;;;;;;;;;;28.65;41.95;101041.66;103094;1284;60851;-82
2023/07/10 00:20:56;;;;;;;;;;;;;;;28.65;41.94;101046.73;103016;1286;62197;-82
2023/07/10 00:23:21;;;;;;;;;;;;;;;28.64;41.95;101048.26;103098;1285;63028;-82
2023/07/10 00:25:47;;;;;;;;;;;;;;;28.64;41.98;101047.71;103113;1284;62226;-81
2023/07/10 00:28:17;;;;;;;;;;;;;;;28.64;42.18;101051.68;103047;1284;62937;-82
2023/07/10 00:30:45;;;;;;;;;;;;;;;28.64;42.25;101051.86;103107;1284;63085;-81
2023/07/10 00:33:10;;;;;;;;;;;;;;;28.64;42.18;101056.04;103115;1284;62981;-81
2023/07/10 00:35:36;;;;;;;;;;;;;;;28.63;42.12;101056.98;102888;1287;62135;-81
2023/07/10 00:38:02;;;;;;;;;;;;;;;28.63;41.95;101056.45;103125;1284;62317;-81
2023/07/10 00:40:32;;;;;;;;;;;;;;;28.64;42.13;101054.98;103080;1285;62158;-81
2023/07/10 00:42:59;;;;;;;;;;;;;;;28.64;42.11;101058.79;102957;1288;63041;-81
2023/07/10 00:45:25;;;;;;;;;;;;;;;28.64;42.05;101060.41;103013;1284;63795;-81
2023/07/10 00:48:11;;;;;;;;;;;;;;;28.63;42.19;101060.27;103057;1289;62202;-82
2023/07/10 00:50:41;;;;;;;;;;;;;;;28.63;41.98;101059.59;102965;1287;60865;-82
2023/07/10 00:53:14;;;;;;;;;;;;;;;28.63;42.12;101058.54;103081;1284;60775;-82
2023/07/10 00:55:39;;;;;;;;;;;;;;;28.62;42.24;101057.08;103018;1284;64920;-81
2023/07/10 00:58:24;;;;;;;;;;;;;;;28.63;41.92;101060.13;103006;1284;63080;-82
2023/07/10 01:01:06;;;;;;;;;;;;;;;28.62;41.97;101058.16;103066;1284;63053;-82
2023/07/10 01:03:32;;;;;;;;;;;;;;;28.62;42.07;101056.36;103163;1285;62843;-82
2023/07/10 01:05:58;;;;;;;;;;;;;;;28.62;42.16;101049.85;103114;1286;62183;-82
2023/07/10 01:08:23;;;;;;;;;;;;;;;28.62;42.13;101049.17;102946;1285;62091;-82
2023/07/10 01:10:49;;;;;;;;;;;;;;;28.62;42.00;101049.17;103010;1288;62291;-81
2023/07/10 01:13:14;;;;;;;;;;;;;;;28.61;42.24;101052.12;103024;1284;62980;-81
2023/07/10 01:15:40;;;;;;;;;;;;;;;28.61;42.19;101049.97;103010;1288;62157;-81
2023/07/10 01:18:09;;;;;;;;;;;;;;;28.61;42.06;101049.61;103378;1288;62186;-81
2023/07/10 01:20:36;;;;;;;;;;;;;;;28.61;42.16;101050.49;103051;1285;67598;-81
2023/07/10 01:23:01;;;;;;;;;;;;;;;28.61;42.23;101047.42;103114;1285;63040;-81
2023/07/10 01:25:32;;;;;;;;;;;;;;;28.60;42.19;101046.95;103026;1285;62093;-81
2023/07/10 01:27:57;;;;;;;;;;;;;;;28.60;42.03;101046.58;102971;1289;64222;-81
2023/07/10 01:30:31;;;;;;;;;;;;;;;28.60;42.20;101046.95;103028;1284;62953;-82
2023/07/10 01:32:56;;;;;;;;;;;;;;;28.60;42.33;101046.07;103312;1284;63088;-82
2023/07/10 01:35:22;;;;;;;;;;;;;;;28.60;42.11;101047.89;103752;1290;62238;-81
2023/07/10 01:37:47;;;;;;;;;;;;;;;28.60;42.10;101046.23;103822;1284;62841;-81
2023/07/10 01:40:14;;;;;;;;;;;;;;;28.60;42.27;101049.67;103583;1288;61805;-81
2023/07/10 01:42:39;;;;;;;;;;;;;;;28.60;42.15;101045.52;104358;1286;63101;-81
2023/07/10 01:45:09;;;;;;;;;;;;;;;28.59;42.17;101041.95;103525;1284;62314;-81
2023/07/10 01:47:35;;;;;;;;;;;;;;;28.60;42.00;101043.21;103320;1284;60844;-81
2023/07/10 01:50:00;;;;;;;;;;;;;;;28.60;42.20;101045.73;102910;1285;63040;-81
2023/07/10 01:52:26;;;;;;;;;;;;;;;28.59;42.12;101044.83;102975;1289;60941;-81
2023/07/10 01:54:51;;;;;;;;;;;;;;;28.60;42.20;101046.09;102792;1286;62212;-81
2023/07/10 01:57:17;;;;;;;;;;;;;;;28.59;42.31;101046.13;102806;1288;60884;-81
2023/07/10 01:59:43;;;;;;;;;;;;;;;28.59;42.18;101042.52;102589;1287;62089;-81
2023/07/10 02:02:09;;;;;;;;;;;;;;;28.59;42.07;101043.40;102747;1287;62330;-81
2023/07/10 02:04:34;;;;;;;;;;;;;;;28.59;42.17;101044.70;102748;1292;62204;-81
2023/07/10 02:07:00;;;;;;;;;;;;;;;28.59;42.34;101049.05;102904;1286;62973;-81
2023/07/10 02:09:27;;;;;;;;;;;;;;;28.58;42.33;101050.55;102770;1290;60967;-81
2023/07/10 02:11:53;;;;;;;;;;;;;;;28.59;42.24;101047.45;102613;1292;63072;-82
2023/07/10 02:14:18;;;;;;;;;;;;;;;28.59;42.25;101049.07;102742;1288;60880;-82
2023/07/10 02:16:44;;;;;;;;;;;;;;;28.59;42.37;101045.98;102739;1286;67595;-82
2023/07/10 02:19:09;;;;;;;;;;;;;;;28.58;42.33;101047.67;102660;1289;62377;-82
2023/07/10 02:21:35;;;;;;;;;;;;;;;28.58;42.20;101047.33;102788;1286;61070;-81
2023/07/10 02:24:00;;;;;;;;;;;;;;;28.58;42.43;101051.13;102739;1290;63021;-81
2023/07/10 02:26:28;;;;;;;;;;;;;;;28.58;42.21;101049.67;102989;1284;62157;-81
2023/07/10 02:28:54;;;;;;;;;;;;;;;28.58;42.38;101051.16;103069;1285;67576;-81
2023/07/10 02:31:20;;;;;;;;;;;;;;;28.58;42.28;101050.45;103065;1288;62183;-81
2023/07/10 02:33:46;;;;;;;;;;;;;;;28.58;42.23;101051.91;103248;1286;62090;-81
2023/07/10 02:36:12;;;;;;;;;;;;;;;28.58;42.36;101049.03;103083;1289;62940;-81
2023/07/10 02:38:38;;;;;;;;;;;;;;;28.58;42.48;101054.63;103112;1288;62159;-81
2023/07/10 02:41:03;;;;;;;;;;;;;;;28.58;42.21;101058.81;103047;1287;63033;-81
2023/07/10 02:43:29;;;;;;;;;;;;;;;28.57;42.20;101056.70;103058;1289;60880;-81
2023/07/10 02:45:54;;;;;;;;;;;;;;;28.57;42.51;101059.27;102782;1289;63071;-81
2023/07/10 02:48:19;;;;;;;;;;;;;;;28.57;42.31;101061.61;103017;1286;60807;-81
2023/07/10 02:50:45;;;;;;;;;;;;;;;28.57;42.30;101058.52;102941;1285;63228;-81
2023/07/10 02:53:10;;;;;;;;;;;;;;;28.57;42.36;101061.23;103295;1289;60736;-81
2023/07/10 02:55:36;;;;;;;;;;;;;;;28.56;42.52;101070.34;103010;1286;63124;-81
2023/07/10 02:58:02;;;;;;;;;;;;;;;28.56;42.40;101067.88;103020;1289;60577;-81
2023/07/10 03:00:28;;;;;;;;;;;;;;;28.56;42.36;101070.73;103072;1288;63091;-81
2023/07/10 03:02:54;;;;;;;;;;;;;;;28.56;42.53;101071.95;103083;1286;60789;-81
2023/07/10 03:05:19;;;;;;;;;;;;;;;28.56;42.55;101072.50;102979;1288;62938;-81
2023/07/10 03:07:45;;;;;;;;;;;;;;;28.56;42.52;101078.48;103019;1289;62174;-81
2023/07/10 03:10:10;;;;;;;;;;;;;;;28.56;42.68;101078.33;103030;1287;62306;-82
2023/07/10 03:12:35;;;;;;;;;;;;;;;28.56;42.50;101078.53;102952;1289;60886;-81
2023/07/10 03:15:01;;;;;;;;;;;;;;;28.55;42.47;101073.67;103024;1284;63069;-81
2023/07/10 03:17:26;;;;;;;;;;;;;;;28.56;42.41;101075.63;102968;1286;60942;-81
2023/07/10 03:19:52;;;;;;;;;;;;;;;28.56;42.66;101075.81;102997;1284;62197;-81
2023/07/10 03:22:17;;;;;;;;;;;;;;;28.56;42.49;101078.52;102994;1286;62054;-81
2023/07/10 03:24:43;;;;;;;;;;;;;;;28.56;42.32;101079.05;102996;1285;62257;-81
2023/07/10 03:27:09;;;;;;;;;;;;;;;28.56;42.49;101078.16;102987;1284;62522;-81
2023/07/10 03:29:36;;;;;;;;;;;;;;;28.56;42.45;101081.21;103091;1289;62144;-81
2023/07/10 03:32:02;;;;;;;;;;;;;;;28.56;42.37;101083.23;103051;1286;63076;-81
2023/07/10 03:34:27;;;;;;;;;;;;;;;28.56;42.50;101082.48;103049;1289;62176;-81
2023/07/10 03:36:53;;;;;;;;;;;;;;;28.56;42.37;101086.31;103081;1286;62556;-81
2023/07/10 03:39:18;;;;;;;;;;;;;;;28.56;42.44;101084.85;103045;1289;66552;-81
2023/07/10 03:41:44;;;;;;;;;;;;;;;28.56;42.56;101085.02;103115;1289;62223;-81
2023/07/10 03:44:10;;;;;;;;;;;;;;;28.56;42.31;101086.63;103065;1287;62062;-82
2023/07/10 03:46:35;;;;;;;;;;;;;;;28.57;42.42;101090.23;102995;1288;62159;-82
2023/07/10 03:49:00;;;;;;;;;;;;;;;28.56;42.63;101087.05;103107;1286;62086;-82
2023/07/10 03:51:26;;;;;;;;;;;;;;;28.55;42.28;101084.54;103007;1285;66675;-81
2023/07/10 03:53:51;;;;;;;;;;;;;;;28.54;42.46;101086.47;103039;1284;63005;-81
2023/07/10 03:56:17;;;;;;;;;;;;;;;28.55;42.56;101092.45;103120;1285;62058;-81
2023/07/10 03:58:43;;;;;;;;;;;;;;;28.54;42.40;101095.73;103113;1285;62184;-81
2023/07/10 04:01:08;;;;;;;;;;;;;;;28.54;42.43;101097.19;103084;1289;60944;-81
2023/07/10 04:03:35;;;;;;;;;;;;;;;28.54;42.60;101096.84;103163;1285;66683;-81
2023/07/10 04:06:01;;;;;;;;;;;;;;;28.53;42.28;101098.34;103097;1289;62188;-81
2023/07/10 04:08:30;;;;;;;;;;;;;;;28.53;42.28;101100.91;103238;1284;62069;-81
2023/07/10 04:10:57;;;;;;;;;;;;;;;28.52;42.12;101101.35;103138;1285;64877;-81
2023/07/10 04:13:23;;;;;;;;;;;;;;;28.52;42.16;101099.95;103063;1286;66698;-81
2023/07/10 04:15:56;;;;;;;;;;;;;;;28.51;42.25;101102.52;103010;1287;61015;-81
2023/07/10 04:18:22;;;;;;;;;;;;;;;28.51;42.06;101101.30;103212;1284;62840;-81
2023/07/10 04:20:48;;;;;;;;;;;;;;;28.50;41.97;101099.90;103047;1287;62183;-81
2023/07/10 04:23:13;;;;;;;;;;;;;;;28.50;42.10;101102.07;102978;1285;63113;-81
2023/07/10 04:25:43;;;;;;;;;;;;;;;28.50;41.97;101100.30;103093;1289;60795;-81
2023/07/10 04:28:08;;;;;;;;;;;;;;;28.49;41.76;101095.12;103179;1285;62188;-81
2023/07/10 04:30:34;;;;;;;;;;;;;;;28.49;41.90;101096.21;103073;1284;62358;-81
2023/07/10 04:32:59;;;;;;;;;;;;;;;28.49;41.87;101097.16;102911;1287;60803;-81
2023/07/10 04:35:25;;;;;;;;;;;;;;;28.49;41.79;101099.33;103036;1284;62200;-81
2023/07/10 04:37:50;;;;;;;;;;;;;;;28.49;41.70;101093.93;103512;1284;60880;-81
2023/07/10 04:40:16;;;;;;;;;;;;;;;28.47;41.64;101092.95;103230;1284;62006;-81
2023/07/10 04:42:41;;;;;;;;;;;;;;;28.49;41.56;101091.02;103075;1290;60955;-81
2023/07/10 04:45:07;;;;;;;;;;;;;;;28.48;41.34;101092.34;103013;1287;62178;-81
2023/07/10 04:47:34;;;;;;;;;;;;;;;28.48;41.44;101092.85;103101;1284;62206;-81
2023/07/10 04:49:59;;;;;;;;;;;;;;;28.49;41.41;101090.98;103112;1287;62163;-81
2023/07/10 04:52:25;;;;;;;;;;;;;;;28.50;41.52;101091.81;103143;1285;62160;-81
2023/07/10 04:54:50;;;;;;;;;;;;;;;28.51;41.24;101088.26;103902;1284;65023;-81
2023/07/10 04:57:17;;;;;;;;;;;;;;;28.52;41.25;101090.52;103122;1284;62197;-81
2023/07/10 04:59:43;;;;;;;;;;;;;;;28.52;41.06;101087.20;103321;1289;62205;-81
2023/07/10 05:02:08;;;;;;;;;;;;;;;28.54;41.14;101085.45;104039;1286;60781;-81
2023/07/10 05:04:34;;;;;;;;;;;;;;;28.54;41.13;101083.58;103883;1284;62173;-81
2023/07/10 05:07:02;;;;;;;;;;;;;;;28.55;41.05;101082.77;103869;1288;62188;-81
2023/07/10 05:09:29;;;;;;;;;;;;;;;28.55;41.06;101087.84;103585;1286;62890;-81
2023/07/10 05:11:54;;;;;;;;;;;;;;;28.55;40.98;101088.59;103351;1289;60894;-81
2023/07/10 05:14:21;;;;;;;;;;;;;;;28.55;40.97;101089.70;103419;1284;62948;-81
2023/07/10 05:16:46;;;;;;;;;;;;;;;28.55;41.01;101089.70;103155;1284;60811;-81
2023/07/10 05:19:11;;;;;;;;;;;;;;;28.55;40.80;101087.70;103009;1287;62182;-81
2023/07/10 05:21:37;;;;;;;;;;;;;;;28.54;40.67;101093.35;103039;1286;62206;-81
2023/07/10 05:24:02;;;;;;;;;;;;;;;28.54;41.01;101092.67;102879;1286;62077;-81
2023/07/10 05:26:28;;;;;;;;;;;;;;;28.54;40.69;101093.80;103119;1286;62052;-81
2023/07/10 05:28:53;;;;;;;;;;;;;;;28.54;40.65;101093.26;102987;1287;62190;-81
2023/07/10 05:31:19;;;;;;;;;;;;;;;28.53;40.68;101095.11;103123;1288;62188;-81
2023/07/10 05:33:46;;;;;;;;;;;;;;;28.54;40.35;101097.73;103114;1284;62218;-81
2023/07/10 05:36:12;;;;;;;;;;;;;;;28.55;40.54;101095.66;103058;1284;62059;-81
2023/07/10 05:38:37;;;;;;;;;;;;;;;28.55;40.63;101095.77;102988;1285;62194;-81
2023/07/10 05:41:03;;;;;;;;;;;;;;;28.56;40.40;101093.86;103384;1284;62842;-81
2023/07/10 05:43:29;;;;;;;;;;;;;;;28.57;40.15;101092.16;103011;1285;63041;-81
2023/07/10 05:45:54;;;;;;;;;;;;;;;28.58;40.32;101091.50;102851;1287;62062;-81
2023/07/10 05:48:20;;;;;;;;;;;;;;;28.59;40.13;101089.44;103103;1284;62068;-81
2023/07/10 05:50:46;;;;;;;;;;;;;;;28.59;40.18;101084.15;102922;1284;62282;-81
2023/07/10 05:53:11;;;;;;;;;;;;;;;28.61;40.23;101081.30;102984;1288;62268;-81
2023/07/10 05:55:36;;;;;;;;;;;;;;;28.62;40.22;101083.42;103012;1286;63150;-81
2023/07/10 05:58:02;;;;;;;;;;;;;;;28.62;40.19;101082.81;103017;1289;60899;-81
2023/07/10 06:00:28;;;;;;;;;;;;;;;28.63;39.98;101083.80;103001;1285;62224;-81
2023/07/10 06:02:54;;;;;;;;;;;;;;;28.64;39.77;101085.94;103094;1284;62073;-81
2023/07/10 06:05:19;;;;;;;;;;;;;;;28.65;39.85;101088.02;102960;1285;63019;-81
2023/07/10 06:07:44;;;;;;;;;;;;;;;28.65;39.72;101085.23;103036;1285;62147;-81
2023/07/10 06:10:10;;;;;;;;;;;;;;;28.66;39.78;101080.32;102937;1284;62177;-81
2023/07/10 06:12:35;;;;;;;;;;;;;;;28.66;39.78;101079.00;103345;1284;60879;-81
2023/07/10 06:15:01;;;;;;;;;;;;;;;28.67;39.76;101075.68;103290;1285;62206;-81
2023/07/10 06:17:26;;;;;;;;;;;;;;;28.67;39.52;101072.55;103472;1286;62844;-81
2023/07/10 06:19:52;;;;;;;;;;;;;;;28.68;39.48;101071.58;103845;1284;63080;-81
2023/07/10 06:22:18;;;;;;;;;;;;;;;28.69;39.31;101072.25;104047;1284;62193;-81
2023/07/10 06:24:43;;;;;;;;;;;;;;;28.69;39.31;101072.33;103817;1284;60919;-81
2023/07/10 06:27:10;;;;;;;;;;;;;;;28.70;39.12;101073.36;103823;1285;61821;-81
2023/07/10 06:29:36;;;;;;;;;;;;;;;28.70;38.79;101073.70;103223;1285;67631;-81
2023/07/10 06:32:01;;;;;;;;;;;;;;;28.71;38.68;101076.67;103542;1287;63036;-81
2023/07/10 06:34:27;;;;;;;;;;;;;;;28.72;38.51;101074.80;104394;1283;60802;-81
2023/07/10 06:36:53;;;;;;;;;;;;;;;28.72;38.40;101075.69;104456;1283;62279;-81
2023/07/10 06:39:18;;;;;;;;;;;;;;;28.73;38.24;101079.00;103123;1288;62176;-81
2023/07/10 06:41:44;;;;;;;;;;;;;;;28.75;37.91;101078.54;103447;1288;63094;-81
2023/07/10 06:44:09;;;;;;;;;;;;;;;28.75;37.94;101077.77;103322;1282;62176;-81
2023/07/10 06:46:35;;;;;;;;;;;;;;;28.76;37.69;101075.48;103346;1288;63112;-81
2023/07/10 06:49:01;;;;;;;;;;;;;;;28.76;37.54;101078.36;103302;1282;62201;-81
2023/07/10 06:51:26;;;;;;;;;;;;;;;28.77;37.68;101072.70;103339;1282;62184;-81
2023/07/10 06:53:51;;;;;;;;;;;;;;;28.77;37.50;101071.39;103345;1285;62245;-81
2023/07/10 06:56:17;;;;;;;;;;;;;;;28.78;37.45;101068.92;103499;1283;62222;-81
2023/07/10 06:58:42;;;;;;;;;;;;;;;28.78;37.32;101065.73;103152;1284;60821;-81
2023/07/10 07:01:08;;;;;;;;;;;;;;;28.78;37.22;101068.41;103654;1285;60730;-81
2023/07/10 07:03:34;;;;;;;;;;;;;;;28.79;36.94;101066.15;103942;1284;62186;-81
2023/07/10 07:05:59;;;;;;;;;;;;;;;28.79;37.13;101065.40;103899;1285;63038;-81
2023/07/10 07:08:25;;;;;;;;;;;;;;;28.79;36.88;101063.92;103069;1286;695628;-81
2023/07/10 07:10:50;;;;;;;;;;;;;;;28.79;36.82;101061.40;103786;1285;62229;-81
2023/07/10 07:13:16;;;;;;;;;;;;;;;28.80;36.64;101061.71;103848;1287;60641;-81
2023/07/10 07:15:42;;;;;;;;;;;;;;;28.80;36.73;101060.63;103682;1284;63012;-81
2023/07/10 07:18:07;;;;;;;;;;;;;;;28.80;36.56;101060.80;103954;1284;61369;-81
2023/07/10 07:20:34;;;;;;;;;;;;;;;28.80;36.45;101061.86;103682;1287;62921;-81
2023/07/10 07:22:59;;;;;;;;;;;;;;;28.81;36.38;101062.98;103189;1285;62180;-81
2023/07/10 07:25:25;;;;;;;;;;;;;;;28.82;36.49;101064.38;103146;1286;62110;-81
2023/07/10 07:27:50;;;;;;;;;;;;;;;28.82;36.36;101067.06;103830;1285;62323;-81
2023/07/10 07:30:16;;;;;;;;;;;;;;;28.83;36.16;101060.88;104746;1284;62392;-81
2023/07/10 07:32:41;;;;;;;;;;;;;;;28.83;36.34;101061.53;104544;1284;62189;-81
2023/07/10 07:35:07;;;;;;;;;;;;;;;28.83;35.85;101060.80;103852;1289;61625;-81
2023/07/10 07:37:33;;;;;;;;;;;;;;;28.84;36.15;101059.27;103741;1284;63866;-81
2023/07/10 07:40:01;;;;;;;;;;;;;;;28.85;35.89;101059.04;103919;1289;62245;-81
2023/07/10 07:42:27;;;;;;;;;;;;;;;28.85;35.75;101057.68;104065;1284;62164;-81
2023/07/10 07:44:53;;;;;;;;;;;;;;;28.86;35.89;101058.54;104085;1284;62160;-81
2023/07/10 07:47:18;;;;;;;;;;;;;;;28.86;35.83;101053.45;104117;1284;62471;-81
2023/07/10 07:49:44;;;;;;;;;;;;;;;28.86;35.78;101048.59;103954;1284;62861;-81
2023/07/10 07:52:09;;;;;;;;;;;;;;;28.87;35.68;101047.08;104504;1289;60844;-81
2023/07/10 07:54:34;;;;;;;;;;;;;;;28.86;35.63;101043.71;103914;1284;62161;-81
2023/07/10 07:57:00;;;;;;;;;;;;;;;28.86;35.63;101039.70;103521;1284;62223;-82
2023/07/10 07:59:26;;;;;;;;;;;;;;;28.87;35.50;101038.35;103442;1285;62202;-82
2023/07/10 08:01:51;;;;;;;;;;;;;;;28.87;35.45;101039.39;103451;1284;62953;-81
2023/07/10 08:04:20;;;;;;;;;;;;;;;28.87;35.63;101036.69;103370;1284;62205;-82
2023/07/10 08:06:45;;;;;;;;;;;;;;;28.88;35.48;101032.64;103318;1286;60669;-82
2023/07/10 08:09:11;;;;;;;;;;;;;;;28.88;35.53;101031.73;103183;1287;61007;-82
2023/07/10 08:11:36;;;;;;;;;;;;;;;28.88;35.49;101030.41;103231;1290;62061;-83
2023/07/10 08:14:02;;;;;;;;;;;;;;;28.88;35.71;101032.44;103135;1285;63088;-82
2023/07/10 08:16:27;;;;;;;;;;;;;;;28.88;35.49;101028.25;103266;1287;62276;-82
2023/07/10 08:18:53;;;;;;;;;;;;;;;28.89;35.41;101023.48;103381;1284;62997;-82
2023/07/10 08:21:18;;;;;;;;;;;;;;;28.89;35.25;101018.59;103192;1287;60778;-82
2023/07/10 08:23:44;;;;;;;;;;;;;;;28.88;35.56;101012.34;103107;1284;63087;-81
2023/07/10 08:26:09;;;;;;;;;;;;;;;28.89;35.45;101016.95;102951;1286;60899;-81
2023/07/10 08:28:34;;;;;;;;;;;;;;;28.89;35.18;101014.41;103109;1284;62214;-81
2023/07/10 08:31:00;;;;;;;;;;;;;;;28.88;35.18;101014.45;103259;1284;60877;-81
2023/07/10 08:33:25;;;;;;;;;;;;;;;28.89;35.09;101017.64;103219;1284;61411;-81
2023/07/10 08:35:54;;;;;;;;;;;;;;;28.90;34.98;101016.29;103387;1284;62196;-81
2023/07/10 08:38:20;;;;;;;;;;;;;;;28.90;35.19;101011.42;103173;1283;67461;-81
2023/07/10 08:40:46;;;;;;;;;;;;;;;28.90;35.00;101010.48;103114;1286;62154;-81
2023/07/10 08:43:20;;;;;;;;;;;;;;;28.90;34.83;101011.55;103106;1284;60838;-81
2023/07/10 08:45:45;;;;;;;;;;;;;;;28.92;35.02;101008.52;103340;1284;63877;-81
2023/07/10 08:48:27;;;;;;;;;;;;;;;28.92;34.80;101009.95;103255;1284;63075;-81
2023/07/10 08:50:55;;;;;;;;;;;;;;;28.92;35.01;101009.95;103368;1287;62175;-81
2023/07/10 08:53:21;;;;;;;;;;;;;;;28.91;35.02;101005.81;103339;1284;62104;-81
2023/07/10 08:55:51;;;;;;;;;;;;;;;28.92;34.97;101005.08;102972;1285;66185;-81
2023/07/10 08:58:17;;;;;;;;;;;;;;;28.91;34.85;101004.79;103455;1285;67628;-81
2023/07/10 09:00:43;;;;;;;;;;;;;;;28.90;34.98;101008.23;103246;1285;62095;-81
2023/07/10 09:03:31;;;;;;;;;;;;;;;28.91;34.91;101005.16;103137;1284;60874;-81
2023/07/10 09:05:58;;;;;;;;;;;;;;;28.91;34.88;101010.40;103071;1284;64512;-81
2023/07/10 09:08:23;;;;;;;;;;;;;;;28.91;35.14;101010.23;103219;1283;60943;-81
2023/07/10 09:10:52;;;;;;;;;;;;;;;28.91;35.00;101009.71;103186;1284;62290;-81
2023/07/10 09:13:24;;;;;;;;;;;;;;;28.91;34.79;101007.54;103236;1286;60854;-81
2023/07/10 09:15:55;;;;;;;;;;;;;;;28.91;34.81;101000.40;103073;1288;63966;-81
2023/07/10 09:18:40;;;;;;;;;;;;;;;28.91;34.97;100994.60;103219;1284;67097;-81
2023/07/10 09:21:14;;;;;;;;;;;;;;;28.91;35.15;100997.11;103102;1286;62969;-81
2023/07/10 09:23:39;;;;;;;;;;;;;;;28.91;35.02;100996.74;103085;1287;62080;-82
2023/07/10 09:26:08;;;;;;;;;;;;;;;28.92;34.95;100993.97;103123;1284;60867;-82
2023/07/10 09:28:34;;;;;;;;;;;;;;;28.92;35.26;100992.67;103460;1283;67507;-82
2023/07/10 09:31:17;;;;;;;;;;;;;;;28.92;35.36;100994.13;103276;1286;62278;-82
2023/07/10 09:33:43;;;;;;;;;;;;;;;28.92;35.55;100987.06;103338;1285;62089;-82
2023/07/10 09:36:13;;;;;;;;;;;;;;;28.92;35.83;100983.27;103011;1286;60838;-82
2023/07/10 09:38:41;;;;;;;;;;;;;;;28.92;35.72;100977.64;103084;1290;67978;-82
2023/07/10 09:41:10;;;;;;;;;;;;;;;28.92;35.76;100983.10;103206;1284;62197;-82
2023/07/10 09:43:36;;;;;;;;;;;;;;;28.91;35.72;100974.50;103366;1284;62212;-82
2023/07/10 09:46:02;;;;;;;;;;;;;;;28.91;36.09;100976.12;103003;1286;63625;-82
2023/07/10 09:48:33;;;;;;;;;;;;;;;28.92;36.02;100970.64;102939;1286;63015;-82
2023/07/10 09:51:02;;;;;;;;;;;;;;;28.91;36.05;100959.07;103124;1284;63135;-81
2023/07/10 09:53:29;;;;;;;;;;;;;;;28.91;36.14;100961.08;103199;1284;62145;-82
2023/07/10 09:55:55;;;;;;;;;;;;;;;28.91;36.29;100955.14;103275;1285;64787;-82
2023/07/10 09:58:20;;;;;;;;;;;;;;;28.92;36.35;100952.71;102985;1286;62190;-82
2023/07/10 10:00:45;;;;;;;;;;;;;;;28.92;36.39;100952.52;102984;1286;63082;-82
2023/07/10 10:03:19;;;;;;;;;;;;;;;28.91;36.28;100948.21;103078;1284;62202;-82
2023/07/10 10:05:46;;;;;;;;;;;;;;;28.91;36.40;100949.52;103041;1286;63753;-82
2023/07/10 10:08:18;;;;;;;;;;;;;;;28.91;36.57;100950.58;102857;1286;67389;-82
2023/07/10 10:10:44;;;;;;;;;;;;;;;28.92;36.64;100943.85;103046;1286;62542;-82
2023/07/10 10:13:23;;;;;;;;;;;;;;;28.91;36.65;100935.37;103287;1286;63142;-82
2023/07/10 10:15:49;;;;;;;;;;;;;;;28.91;36.62;100927.59;103375;1285;66095;-82
2023/07/10 10:18:26;;;;;;;;;;;;;;;28.90;36.67;100926.23;103193;1284;60877;-82
2023/07/10 10:20:51;;;;;;;;;;;;;;;28.91;36.77;100922.02;103572;1284;62935;-82
2023/07/10 10:23:37;;;;;;;;;;;;;;;28.91;36.82;100915.63;103947;1284;63072;-82
2023/07/10 10:26:18;;;;;;;;;;;;;;;28.91;36.86;100911.79;104097;1284;65306;-82
2023/07/10 10:28:47;;;;;;;;;;;;;;;28.92;37.01;100907.95;104085;1285;66747;-82
2023/07/10 10:31:12;;;;;;;;;;;;;;;28.92;37.29;100911.42;103988;1283;62976;-82
2023/07/10 10:34:07;;;;;;;;;;;;;;;28.92;37.00;100911.59;103876;1284;62368;-82
2023/07/10 10:36:42;;;;;;;;;;;;;;;28.91;36.90;100906.36;103720;1290;63887;-82
2023/07/10 10:39:26;;;;;;;;;;;;;;;28.91;37.12;100902.96;105656;1289;66518;-81
2023/07/10 10:41:55;;;;;;;;;;;;;;;28.91;37.29;100900.75;103909;1289;61965;-81
2023/07/10 10:44:40;;;;;;;;;;;;;;;28.91;37.25;100903.10;103981;1288;63013;-81
2023/07/10 10:47:06;;;;;;;;;;;;;;;28.91;37.26;100903.48;104398;1292;64794;-81
2023/07/10 10:49:53;;;;;;;;;;;;;;;28.91;37.42;100901.71;103929;1289;61091;-81
2023/07/10 10:52:46;;;;;;;;;;;;;;;28.92;37.36;100902.55;103492;1291;60756;-81
2023/07/10 10:55:20;;;;;;;;;;;;;;;28.92;37.36;100898.30;103550;1288;62182;-81
2023/07/10 10:58:04;;;;;;;;;;;;;;;28.92;37.29;100901.04;103559;1289;63848;-81
2023/07/10 11:01:00;;;;;;;;;;;;;;;28.92;37.28;100901.04;103922;1289;66650;-81
2023/07/10 11:03:34;;;;;;;;;;;;;;;28.92;37.31;100890.14;102715;1296;61790;-81
2023/07/10 11:06:17;;;;;;;;;;;;;;;28.93;37.19;100882.89;103126;1295;62211;-81
2023/07/10 11:08:44;;;;;;;;;;;;;;;28.92;37.36;100875.89;103005;1296;65177;-81
2023/07/10 11:11:13;;;;;;;;;;;;;;;28.93;37.41;100879.23;102847;1294;67638;-81
2023/07/10 11:13:38;;;;;;;;;;;;;;;28.94;37.43;100879.52;102599;1295;62229;-81
2023/07/10 11:16:04;;;;;;;;;;;;;;;28.93;37.64;100879.72;102379;1293;62360;-81
2023/07/10 11:18:29;;;;;;;;;;;;;;;28.93;37.51;100876.67;102585;1296;62375;-81
2023/07/10 11:20:55;;;;;;;;;;;;;;;28.93;37.48;100878.09;102284;1295;62317;-81
2023/07/10 11:23:28;;;;;;;;;;;;;;;28.93;37.45;100874.32;102316;1296;62287;-81
2023/07/10 11:26:02;;;;;;;;;;;;;;;28.93;37.37;100871.64;102773;1293;62366;-81
2023/07/10 11:28:28;;;;;;;;;;;;;;;28.93;37.43;100869.65;103054;1295;72467;-81
2023/07/10 11:31:30;;;;;;;;;;;;;;;28.93;37.65;100871.63;102783;1293;61879;-81
2023/07/10 11:34:05;;;;;;;;;;;;;;;28.93;37.63;100869.83;102387;1302;60785;-81
2023/07/10 11:36:33;;;;;;;;;;;;;;;28.92;37.69;100869.52;102312;1297;62216;-82
2023/07/10 11:39:09;;;;;;;;;;;;;;;28.92;37.41;100870.07;102398;1297;63744;-81
2023/07/10 11:41:55;;;;;;;;;;;;;;;28.92;37.49;100873.29;102541;1290;66808;-81
2023/07/10 11:44:32;;;;;;;;;;;;;;;28.92;37.38;100871.86;102531;1290;60841;-81
2023/07/10 11:47:01;;;;;;;;;;;;;;;28.92;37.59;100868.05;102766;1291;62143;-81
2023/07/10 11:49:35;;;;;;;;;;;;;;;28.92;37.42;100865.68;102711;1289;64023;-81
2023/07/10 11:52:13;;;;;;;;;;;;;;;28.92;37.60;100867.12;102752;1288;67644;-81
2023/07/10 11:54:47;;;;;;;;;;;;;;;28.93;37.49;100867.66;102710;1289;60997;-81
2023/07/10 11:57:22;;;;;;;;;;;;;;;28.93;37.49;100868.57;102617;1291;62138;-81
2023/07/10 11:59:49;;;;;;;;;;;;;;;28.92;37.55;100866.23;102389;1291;63965;-81
2023/07/10 12:02:25;;;;;;;;;;;;;;;28.92;37.71;100867.51;102357;1292;67740;-81
2023/07/10 12:04:50;;;;;;;;;;;;;;;28.92;37.45;100864.10;102359;1291;62214;-81
2023/07/10 12:07:16;;;;;;;;;;;;;;;28.92;37.50;100858.49;102555;1290;62253;-81
2023/07/10 12:09:41;;;;;;;;;;;;;;;28.92;37.58;100856.86;102841;1287;62208;-81
2023/07/10 12:12:10;;;;;;;;;;;;;;;28.92;37.67;100853.45;102983;1286;62705;-81
2023/07/10 12:14:35;;;;;;;;;;;;;;;28.91;37.88;100846.41;103072;1286;63091;-81
2023/07/10 12:17:01;;;;;;;;;;;;;;;28.92;37.50;100848.35;102976;1288;62384;-81
2023/07/10 12:19:30;;;;;;;;;;;;;;;28.91;37.51;100851.65;103044;1286;62267;-81
2023/07/10 12:22:22;;;;;;;;;;;;;;;28.92;37.62;100852.73;103134;1286;62190;-81
2023/07/10 12:24:52;;;;;;;;;;;;;;;28.92;37.74;100848.72;103080;1286;60777;-81
2023/07/10 12:27:18;;;;;;;;;;;;;;;28.92;37.73;100843.84;102875;1286;62110;-81
2023/07/10 12:29:56;;;;;;;;;;;;;;;28.92;37.58;100843.39;103024;1286;63107;-81